Time;durP1;ratioP1;P1;durP2;ratioP2;P2;SDS_P1;SDS_P2;PMS_P1;PMS_P2;Temp;Humidity;BMP_temperature;BMP_pressure;BME280_temperature;BME280_humidity;BME280_pressure;Samples;Min_cycle;Max_cycle;Signal;HPM_P1;HPM_P2
2021/03/12 00:01:07;;;;;;;2.73;1.23;;;7.40;71.00;;;7.51;62.08;96905.69;4988240;28;20064;-33
2021/03/12 00:03:36;;;;;;;2.60;1.57;;;7.40;72.60;;;7.53;61.45;96915.13;4986889;28;20060;-33
2021/03/12 00:06:10;;;;;;;3.13;1.27;;;7.50;72.00;;;7.47;61.90;96929.00;4986043;28;20054;-33
2021/03/12 00:08:44;;;;;;;3.80;0.93;;;7.50;71.30;;;7.53;61.81;96904.53;4984166;28;20290;-33
2021/03/12 00:11:12;;;;;;;3.03;0.80;;;7.50;71.80;;;7.37;60.47;96900.00;4985929;28;20073;-33
2021/03/12 00:13:40;;;;;;;2.30;0.90;;;7.40;70.10;;;7.39;60.60;96910.44;4985445;28;20056;-33
2021/03/12 00:16:08;;;;;;;3.47;1.00;;;7.40;70.70;;;7.38;60.71;96906.13;4986324;28;20504;-33
2021/03/12 00:18:42;;;;;;;1.90;1.00;;;7.40;70.30;;;7.34;60.01;96918.84;4968599;28;20568;-33
2021/03/12 00:21:13;;;;;;;2.45;0.93;;;7.40;69.50;;;7.52;60.93;96907.31;4984709;28;20649;-33
2021/03/12 00:23:44;;;;;;;3.10;1.50;;;7.50;69.90;;;7.45;60.77;96920.38;4985597;28;20054;-33
2021/03/12 00:26:11;;;;;;;2.90;1.23;;;7.50;70.30;;;7.46;60.64;96911.44;4985404;28;20046;-33
2021/03/12 00:28:40;;;;;;;3.67;1.10;;;7.40;69.30;;;7.41;60.63;96929.63;4983191;28;20064;-33
2021/03/12 00:31:08;;;;;;;1.33;0.97;;;7.50;69.70;;;7.35;59.43;96923.16;4984265;28;20453;-34
2021/03/12 00:33:37;;;;;;;3.50;1.33;;;7.50;67.60;;;7.45;60.20;96939.75;4985020;28;20058;-33
2021/03/12 00:36:06;;;;;;;1.93;1.73;;;7.50;68.70;;;7.54;59.35;96926.53;4984825;28;20058;-33
2021/03/12 00:38:33;;;;;;;2.60;1.10;;;7.50;68.70;;;7.52;59.16;96923.22;4986630;28;20042;-33
2021/03/12 00:41:07;;;;;;;3.97;1.00;;;7.60;68.40;;;7.41;58.58;96935.75;4984176;28;20051;-33
2021/03/12 00:43:48;;;;;;;3.20;1.83;;;7.50;67.80;;;7.53;58.90;96941.59;4985801;28;20046;-33
2021/03/12 00:46:25;;;;;;;1.97;1.43;;;7.50;68.00;;;7.52;58.64;96934.63;4986441;28;20050;-33
2021/03/12 00:48:53;;;;;;;3.50;1.50;;;7.50;67.20;;;7.47;57.10;96929.00;4986769;28;20362;-33
2021/03/12 00:51:21;;;;;;;5.40;1.10;;;7.50;65.90;;;7.45;57.77;96947.69;4984843;28;20409;-33
2021/03/12 00:54:05;;;;;;;2.40;1.17;;;7.50;67.00;;;7.45;57.66;96950.34;4984368;28;20060;-33
2021/03/12 00:56:34;;;;;;;2.40;1.17;;;7.50;66.60;;;7.45;57.68;96968.06;4984534;28;20058;-33
2021/03/12 00:59:04;;;;;;;4.30;1.47;;;7.50;67.00;;;7.42;57.53;96973.66;4985513;28;20050;-33
2021/03/12 01:01:38;;;;;;;2.67;0.98;;;7.40;66.10;;;7.47;57.88;96972.19;5000267;28;20379;-33
2021/03/12 01:04:06;;;;;;;6.23;1.43;;;7.40;66.50;;;7.34;57.49;96990.31;4984667;28;20058;-32
2021/03/12 01:06:34;;;;;;;6.30;1.03;;;7.40;66.20;;;7.40;56.80;96996.81;4982838;28;20054;-33
2021/03/12 01:09:04;;;;;;;2.97;0.80;;;7.40;64.90;;;7.48;56.95;96996.84;4983373;28;20058;-33
2021/03/12 01:11:34;;;;;;;4.73;1.87;;;7.40;65.40;;;7.34;56.90;97005.41;4984250;28;20217;-33
2021/03/12 01:14:04;;;;;;;3.23;1.20;;;7.40;64.80;;;7.36;57.16;97006.06;4983880;28;20073;-33
2021/03/12 01:16:36;;;;;;;3.23;1.03;;;7.30;65.50;;;7.34;56.42;97031.88;4982032;28;20064;-33
2021/03/12 01:19:06;;;;;;;2.77;0.83;;;7.30;65.30;;;7.33;56.34;96987.84;4983230;28;20595;-33
2021/03/12 01:21:35;;;;;;;3.70;1.50;;;7.30;65.60;;;7.25;56.39;96999.19;4984641;28;20043;-33
2021/03/12 01:24:06;;;;;;;3.67;1.20;;;7.30;63.90;;;7.32;58.01;96999.44;4983611;28;20141;-32
2021/03/12 01:26:41;;;;;;;3.00;1.10;;;7.30;67.30;;;7.39;58.33;97011.06;4984572;28;20046;-32
2021/03/12 01:29:12;;;;;;;3.17;1.27;;;7.20;69.20;;;7.31;58.51;96998.59;4983101;28;20062;-32
2021/03/12 01:32:15;;;;;;;1.80;1.00;;;7.10;69.40;;;7.34;58.32;97002.75;4979168;28;20054;-32
2021/03/12 01:34:49;;;;;;;1.87;1.00;;;7.10;68.10;;;7.24;57.44;97016.91;4983322;28;20548;-33
2021/03/12 01:37:18;;;;;;;2.37;0.80;;;7.10;66.60;;;7.19;57.92;97013.06;4984470;28;20054;-33
2021/03/12 01:39:53;;;;;;;4.20;1.50;;;7.10;67.40;;;7.23;57.62;97023.22;4985905;28;20057;-33
2021/03/12 01:42:22;;;;;;;2.27;0.80;;;7.10;67.60;;;7.17;59.65;97041.50;4987014;28;20155;-33
2021/03/12 01:44:51;;;;;;;1.50;0.73;;;6.90;70.60;;;7.03;59.86;97040.25;4986582;28;20058;-33
2021/03/12 01:47:20;;;;;;;3.97;0.90;;;6.70;71.90;;;7.05;59.16;97040.94;4987816;28;20461;-33
2021/03/12 01:49:48;;;;;;;1.43;0.90;;;6.70;71.90;;;6.86;59.90;97047.22;4989178;28;20054;-33
2021/03/12 01:52:16;;;;;;;4.10;1.60;;;6.50;72.30;;;6.77;59.81;97082.56;4987605;28;20252;-33
2021/03/12 01:54:44;;;;;;;4.07;1.00;;;6.50;71.10;;;6.79;59.66;97047.03;4988022;28;20060;-33
2021/03/12 01:57:15;;;;;;;2.60;1.13;;;6.60;70.30;;;6.79;58.71;97031.16;4985096;28;20061;-33
2021/03/12 02:00:05;;;;;;;6.13;1.10;;;6.60;68.90;;;6.84;58.63;97050.06;4986783;28;20051;-33
2021/03/12 02:02:41;;;;;;;3.37;1.10;;;6.70;68.30;;;6.90;58.45;97043.28;4993097;28;20038;-33
2021/03/12 02:05:38;;;;;;;1.57;1.00;;;6.80;68.10;;;6.90;57.60;97043.28;4987562;28;20348;-33
2021/03/12 02:08:08;;;;;;;2.90;2.00;;;6.80;67.40;;;6.88;57.97;97053.19;4986408;28;20054;-33
2021/03/12 02:10:43;;;;;;;4.13;1.77;;;6.80;67.80;;;6.88;57.72;97039.97;4985869;28;20091;-33
2021/03/12 02:14:01;;;;;;;2.50;1.13;;;6.80;67.20;;;6.89;58.63;97039.81;4987666;28;20069;-33
2021/03/12 02:16:40;;;;;;;3.30;1.03;;;6.80;67.50;;;6.85;58.16;97043.75;4986140;28;20058;-33
2021/03/12 02:19:48;;;;;;;4.00;1.30;;;6.80;68.10;;;6.80;58.86;97050.47;4985664;28;20058;-33
2021/03/12 02:22:21;;;;;;;2.50;1.20;;;6.80;68.10;;;6.95;58.45;97048.97;4986617;28;20062;-33
2021/03/12 02:24:59;;;;;;;3.72;1.20;;;6.80;68.60;;;6.87;58.61;97048.91;4971035;28;20483;-33
2021/03/12 02:27:43;;;;;;;2.10;1.00;;;6.80;68.80;;;6.99;58.38;97055.59;4986434;28;20068;-33
2021/03/12 02:30:14;;;;;;;4.43;1.40;;;6.80;69.10;;;7.06;58.95;97051.38;4971259;28;20058;-33
2021/03/12 02:32:48;;;;;;;3.55;1.20;;;6.90;69.00;;;7.05;58.60;97054.16;4989141;28;20057;-33
2021/03/12 02:35:23;;;;;;;1.87;0.90;;;6.80;69.00;;;7.09;58.65;97045.78;4986938;28;20055;-33
2021/03/12 02:38:04;;;;;;;2.60;0.80;;;6.90;68.70;;;7.15;58.58;97051.44;4976707;28;20254;-33
2021/03/12 02:40:34;;;;;;;2.53;1.07;;;7.00;68.90;;;7.10;58.19;97051.91;4988278;28;20058;-33
2021/03/12 02:43:07;;;;;;;3.70;1.20;;;6.90;67.10;;;7.18;57.85;97053.78;5004894;28;20062;-33
2021/03/12 02:45:36;;;;;;;5.73;1.17;;;6.90;68.00;;;7.21;57.97;97049.00;5000270;28;20042;-33
2021/03/12 02:48:15;;;;;;;3.03;1.43;;;7.00;68.10;;;7.18;57.30;97051.97;5001927;28;20049;-33
2021/03/12 02:50:44;;;;;;;3.37;1.00;;;6.90;66.90;;;7.22;57.43;97050.66;5004339;28;20054;-33
2021/03/12 02:53:19;;;;;;;2.10;1.10;;;6.90;67.10;;;7.18;56.08;97061.72;5004925;28;20065;-33
2021/03/12 02:55:53;;;;;;;6.23;1.00;;;6.90;65.40;;;7.18;57.09;97045.84;5003729;28;20061;-33
2021/03/12 02:58:22;;;;;;;4.63;1.23;;;6.90;65.50;;;7.09;56.15;97052.88;5007264;28;20236;-33
2021/03/12 03:00:54;;;;;;;2.27;1.67;;;6.90;65.10;;;7.19;56.89;97055.44;5005469;28;20248;-33
2021/03/12 03:03:47;;;;;;;6.03;1.07;;;7.00;65.90;;;7.19;55.84;97055.44;5005276;28;20058;-33
2021/03/12 03:06:39;;;;;;;4.13;1.00;;;6.90;64.00;;;7.14;55.44;97063.84;4993816;28;20049;-33
2021/03/12 03:09:07;;;;;;;3.07;1.00;;;6.90;63.80;;;7.01;54.38;97069.53;4988119;28;20129;-33
2021/03/12 03:11:36;;;;;;;3.47;1.10;;;6.90;63.00;;;7.03;54.15;97053.50;5005434;28;20385;-33
2021/03/12 03:14:06;;;;;;;2.10;1.00;;;6.90;61.50;;;7.06;54.98;97058.50;5005404;28;20429;-33
2021/03/12 03:16:36;;;;;;;3.53;1.07;;;6.90;63.20;;;7.02;53.36;97060.63;5006398;28;20060;-33
2021/03/12 03:19:08;;;;;;;2.10;1.13;;;6.90;61.20;;;7.03;53.66;97059.59;5005805;28;20065;-33
2021/03/12 03:21:36;;;;;;;4.13;1.40;;;6.90;60.70;;;7.06;54.16;97067.25;5004994;28;20057;-33
2021/03/12 03:24:04;;;;;;;3.17;1.23;;;7.00;61.50;;;7.17;54.65;97078.56;5005031;28;20445;-33
2021/03/12 03:26:32;;;;;;;4.43;0.87;;;7.00;62.60;;;7.15;54.01;97084.03;5004835;28;20050;-33
2021/03/12 03:28:59;;;;;;;1.90;1.13;;;7.10;61.40;;;7.06;53.00;97088.44;5005311;28;20425;-33
2021/03/12 03:31:28;;;;;;;2.93;0.97;;;7.00;59.80;;;7.05;53.42;97075.34;5004187;28;20049;-33
2021/03/12 03:33:56;;;;;;;2.13;0.90;;;7.00;59.80;;;7.09;52.86;97096.06;5006688;28;20054;-33
2021/03/12 03:36:24;;;;;;;1.83;1.00;;;7.00;60.00;;;6.99;52.09;97110.38;5004869;28;20072;-33
2021/03/12 03:38:52;;;;;;;5.80;1.40;;;7.00;59.90;;;6.98;52.44;97093.66;5004374;28;20061;-33
2021/03/12 03:41:20;;;;;;;1.57;0.80;;;6.90;59.80;;;6.98;53.10;97108.69;5006660;28;20383;-33
2021/03/12 03:43:51;;;;;;;1.27;0.87;;;6.90;60.60;;;6.94;53.20;97113.47;5005384;28;20344;-33
2021/03/12 03:46:26;;;;;;;2.60;0.90;;;6.90;61.40;;;6.87;52.92;97120.34;4988821;28;20248;-33
2021/03/12 03:48:57;;;;;;;2.50;1.10;;;6.80;60.20;;;6.93;53.19;97135.63;4989352;28;20053;-33
2021/03/12 03:51:40;;;;;;;2.97;1.20;;;6.80;60.70;;;7.00;53.00;97151.72;4988657;28;20456;-32
2021/03/12 03:54:15;;;;;;;5.77;1.50;;;6.80;60.70;;;6.95;52.90;97143.41;4989253;28;20259;-33
2021/03/12 03:56:45;;;;;;;7.17;1.37;;;6.90;60.70;;;6.74;51.66;97159.56;5005094;28;20072;-33
2021/03/12 03:59:14;;;;;;;2.47;1.23;;;6.70;58.80;;;6.67;51.94;97167.28;5004345;28;20068;-33
2021/03/12 04:01:45;;;;;;;3.30;0.97;;;6.60;60.00;;;6.77;51.38;97172.50;5004358;28;20442;-33
2021/03/12 04:04:16;;;;;;;5.33;1.83;;;6.70;58.70;;;6.79;52.66;97157.31;4989888;28;20057;-33
2021/03/12 04:06:46;;;;;;;4.13;1.10;;;6.70;59.80;;;6.90;53.21;97159.72;5004233;28;20049;-33
2021/03/12 04:09:16;;;;;;;3.90;0.90;;;6.80;60.50;;;6.82;52.25;97178.16;5006071;28;20060;-33
2021/03/12 04:11:46;;;;;;;2.53;1.50;;;6.70;60.10;;;6.72;53.00;97187.97;5004554;28;20627;-33
2021/03/12 04:14:22;;;;;;;5.03;1.40;;;6.60;60.00;;;6.56;51.20;97199.22;5005156;28;20062;-33
2021/03/12 04:16:52;;;;;;;4.03;1.33;;;6.50;58.60;;;6.58;50.88;97221.88;4988570;28;20438;-33
2021/03/12 04:19:23;;;;;;;2.63;1.50;;;6.50;58.80;;;6.67;52.16;97210.44;4987973;28;20058;-33
2021/03/12 04:21:52;;;;;;;6.93;1.50;;;6.60;59.50;;;6.63;51.57;97203.78;4988853;28;20086;-33
2021/03/12 04:24:21;;;;;;;4.70;2.03;;;6.60;59.00;;;6.62;51.44;97188.03;5005223;28;20061;-33
2021/03/12 04:26:50;;;;;;;3.17;1.40;;;6.60;59.20;;;6.70;51.97;97196.06;5003935;28;20382;-33
2021/03/12 04:29:23;;;;;;;2.92;1.63;;;6.60;58.40;;;6.67;51.48;97210.44;4989667;28;20060;-33
2021/03/12 04:31:51;;;;;;;5.37;2.80;;;6.60;58.50;;;6.72;51.73;97207.31;4987430;28;20045;-33
2021/03/12 04:34:19;;;;;;;2.80;1.40;;;6.60;58.70;;;6.72;52.13;97214.44;5003771;28;20045;-33
2021/03/12 04:36:47;;;;;;;3.40;1.77;;;6.60;58.50;;;6.59;51.73;97217.41;5005656;28;20260;-33
2021/03/12 04:39:16;;;;;;;2.50;1.37;;;6.50;59.00;;;6.60;52.08;97219.91;4988028;28;20275;-33
2021/03/12 04:41:45;;;;;;;9.07;2.27;;;6.50;59.50;;;6.62;51.73;97233.00;5003077;28;20056;-33
2021/03/12 04:44:16;;;;;;;4.37;1.17;;;6.50;59.40;;;6.54;51.60;97209.09;4988810;28;20661;-32
2021/03/12 04:46:45;;;;;;;5.13;1.50;;;6.50;59.00;;;6.62;52.08;97233.81;5002451;28;20064;-33
2021/03/12 04:49:13;;;;;;;7.03;1.73;;;6.60;59.40;;;6.72;51.64;97220.56;5003267;28;20370;-33
2021/03/12 04:51:47;;;;;;;3.10;1.27;;;6.60;59.50;;;6.73;51.23;97235.47;5003470;28;20050;-33
2021/03/12 04:54:18;;;;;;;4.53;1.37;;;6.60;59.10;;;6.68;51.33;97227.94;5004501;28;20062;-33
2021/03/12 04:56:48;;;;;;;7.17;3.70;;;6.50;59.00;;;6.60;51.35;97227.84;4987635;28;20072;-33
2021/03/12 04:59:17;;;;;;;4.13;1.20;;;6.50;59.50;;;6.60;51.40;97222.56;5003462;28;20244;-32
2021/03/12 05:01:48;;;;;;;2.90;1.40;;;6.50;59.10;;;6.64;51.93;97221.28;4986320;28;20049;-33
2021/03/12 05:04:17;;;;;;;3.00;1.20;;;6.50;59.00;;;6.70;51.42;97231.28;4986580;28;20065;-33
2021/03/12 05:06:47;;;;;;;5.43;1.40;;;6.50;59.40;;;6.65;51.08;97232.69;5002740;28;20058;-33
2021/03/12 05:09:36;;;;;;;2.57;1.10;;;6.50;58.70;;;6.65;51.66;97222.97;4989869;28;20054;-33
2021/03/12 05:12:05;;;;;;;2.47;1.20;;;6.50;59.30;;;6.69;51.81;97232.28;5003636;28;20365;-33
2021/03/12 05:14:36;;;;;;;4.87;1.97;;;6.50;60.10;;;6.67;51.52;97231.59;5005608;28;20063;-33
2021/03/12 05:17:03;;;;;;;3.30;1.50;;;6.50;60.20;;;6.67;52.49;97244.00;5005241;28;20220;-33
2021/03/12 05:19:31;;;;;;;2.00;1.10;;;6.60;60.10;;;6.48;52.68;97244.91;5006999;28;20378;-33
2021/03/12 05:22:00;;;;;;;3.10;1.20;;;6.30;60.70;;;6.55;53.09;97232.75;5006086;28;20245;-33
2021/03/12 05:24:31;;;;;;;5.20;1.90;;;6.40;61.00;;;6.57;53.21;97225.53;5008290;28;20054;-32
2021/03/12 05:26:59;;;;;;;2.93;0.93;;;6.40;60.80;;;6.61;53.71;97228.69;5006862;28;20061;-32
2021/03/12 05:29:31;;;;;;;6.20;1.23;;;6.50;61.20;;;6.65;53.40;97230.03;5006436;28;20359;-32
2021/03/12 05:32:04;;;;;;;9.97;1.73;;;6.50;61.70;;;6.60;52.62;97237.59;5009271;22;20058;-40
2021/03/12 05:34:36;;;;;;;6.38;1.50;;;6.40;61.60;;;6.66;53.85;97229.91;5005268;28;20061;-39
2021/03/12 05:37:05;;;;;;;2.90;1.73;;;6.40;62.00;;;6.72;52.96;97227.66;5004381;28;20263;-39
2021/03/12 05:39:33;;;;;;;3.53;1.07;;;6.50;61.70;;;6.69;52.90;97234.91;5005504;28;20054;-39
2021/03/12 05:42:02;;;;;;;3.13;1.00;;;6.50;62.20;;;6.72;53.31;97228.50;4986904;28;20308;-39
2021/03/12 05:44:38;;;;;;;1.33;0.80;;;6.50;62.60;;;6.75;53.18;97238.78;4988934;28;20058;-39
2021/03/12 05:47:07;;;;;;;3.73;1.20;;;6.50;62.10;;;6.59;52.91;97243.88;4989856;28;20050;-39
2021/03/12 05:49:36;;;;;;;2.60;1.00;;;6.40;61.50;;;6.67;52.96;97234.22;5005072;28;20513;-39
2021/03/12 05:52:05;;;;;;;5.10;2.20;;;6.40;62.20;;;6.71;52.97;97245.34;4987822;28;20062;-39
2021/03/12 05:54:33;;;;;;;6.50;1.43;;;6.50;62.30;;;6.73;53.86;97243.41;4973783;28;20054;-39
2021/03/12 05:57:02;;;;;;;2.33;1.00;;;6.50;62.60;;;6.77;53.71;97250.06;4986747;28;20054;-39
2021/03/12 05:59:29;;;;;;;4.30;1.30;;;6.50;62.20;;;6.81;53.65;97243.50;4988878;28;20066;-39
2021/03/12 06:02:01;;;;;;;5.10;1.27;;;6.60;62.10;;;6.84;53.83;97242.34;4988714;28;20381;-39
2021/03/12 06:04:28;;;;;;;2.83;1.13;;;6.60;61.90;;;6.89;53.42;97255.97;4988277;28;20072;-39
2021/03/12 06:06:56;;;;;;;7.20;2.40;;;6.70;61.60;;;6.90;53.14;97250.56;4987915;28;20066;-38
2021/03/12 06:09:25;;;;;;;4.67;1.87;;;6.70;62.30;;;6.93;52.73;97251.22;5003911;28;20057;-39
2021/03/12 06:11:55;;;;;;;6.23;1.37;;;6.70;61.80;;;6.98;53.50;97256.91;5004605;28;20054;-46
2021/03/12 06:14:50;;;;;;;1.83;1.10;;;6.70;61.60;;;6.97;53.29;97255.25;4988653;28;20335;-39
2021/03/12 06:17:38;;;;;;;2.63;1.40;;;6.80;61.70;;;7.02;53.46;97259.13;4990176;28;20082;-39
2021/03/12 06:20:13;;;;;;;3.80;1.00;;;6.80;62.10;;;7.02;53.39;97264.41;4988245;28;20212;-39
2021/03/12 06:22:50;;;;;;;3.73;1.10;;;6.80;62.90;;;6.99;54.41;97255.94;5005612;28;20240;-39
2021/03/12 06:25:29;;;;;;;5.43;1.60;;;6.70;64.70;;;6.89;55.87;97271.88;5004204;28;20050;-39
2021/03/12 06:28:20;;;;;;;3.93;1.30;;;6.60;65.90;;;6.78;56.94;97291.41;4993428;28;20120;-39
2021/03/12 06:31:27;;;;;;;4.43;1.63;;;6.40;68.50;;;6.68;58.72;97275.56;5001511;28;20046;-39
2021/03/12 06:34:11;;;;;;;2.27;1.00;;;6.30;70.90;;;6.56;58.74;97271.44;4990004;28;20046;-38
2021/03/12 06:37:30;;;;;;;4.15;1.20;;;6.10;72.50;;;6.56;58.24;97275.91;4988603;28;20062;-38
2021/03/12 06:40:29;;;;;;;1.93;1.03;;;6.10;72.40;;;6.50;59.05;97296.66;4987137;28;20375;-38
2021/03/12 06:43:23;;;;;;;3.37;1.77;;;6.10;72.30;;;6.42;60.24;97288.63;4990611;28;20054;-39
2021/03/12 06:45:59;;;;;;;3.23;1.10;;;6.00;72.90;;;6.39;59.68;97291.53;5002824;28;20058;-38
2021/03/12 06:48:36;;;;;;;2.23;1.30;;;6.00;73.90;;;6.35;58.92;97294.63;4988750;28;20141;-39
2021/03/12 06:51:28;;;;;;;2.67;1.38;;;5.90;72.80;;;6.33;59.04;97296.56;5002189;28;20364;-38
2021/03/12 06:54:06;;;;;;;3.87;1.37;;;5.90;73.90;;;6.33;59.30;97294.75;5003969;28;20062;-39
2021/03/12 06:56:49;;;;;;;3.50;1.63;;;6.00;73.80;;;6.27;59.64;97296.16;5004173;28;20054;-38
2021/03/12 06:59:29;;;;;;;2.20;1.50;;;5.90;74.00;;;6.29;61.05;97288.91;4988539;28;20062;-38
2021/03/12 07:02:15;;;;;;;3.13;1.30;;;5.90;74.90;;;6.26;60.61;97286.59;4986838;28;20359;-39
2021/03/12 07:04:55;;;;;;;5.67;1.40;;;5.90;74.30;;;6.30;60.22;97298.53;4986931;28;20062;-38
2021/03/12 07:07:42;;;;;;;3.20;1.17;;;5.90;74.70;;;6.29;60.51;97294.22;4992380;28;20057;-39
2021/03/12 07:10:37;;;;;;;7.97;1.73;;;6.00;74.40;;;6.32;61.53;97303.69;4989150;28;20084;-40
2021/03/12 07:13:20;;;;;;;1.90;0.97;;;6.10;74.60;;;6.40;60.72;97301.16;5002518;28;20058;-39
2021/03/12 07:15:57;;;;;;;5.25;2.70;;;6.20;74.10;;;6.44;60.83;97310.47;4986299;28;20057;-39
2021/03/12 07:18:35;;;;;;;2.40;1.37;;;6.30;74.50;;;6.42;61.60;97308.94;5001485;28;20064;-38
2021/03/12 07:21:09;;;;;;;2.20;1.93;;;6.20;75.00;;;6.47;61.03;97312.81;4985974;28;20267;-41
2021/03/12 07:23:44;;;;;;;4.03;1.13;;;6.30;74.20;;;6.35;61.68;97329.81;5004017;28;20072;-39
2021/03/12 07:26:19;;;;;;;4.17;1.77;;;6.10;74.10;;;6.23;61.81;97321.22;4985115;28;20050;-39
2021/03/12 07:29:00;;;;;;;3.50;1.50;;;5.90;74.90;;;6.28;61.29;97316.34;5003658;28;20080;-39
2021/03/12 07:31:52;;;;;;;4.90;1.50;;;6.00;75.00;;;6.20;61.84;97328.59;4987594;28;20062;-39
2021/03/12 07:34:32;;;;;;;5.40;1.47;;;5.90;75.30;;;6.26;61.90;97323.59;5003362;28;20478;-40
2021/03/12 07:37:09;;;;;;;5.00;1.53;;;6.00;75.10;;;6.30;62.09;97332.03;5000578;28;20606;-39
2021/03/12 07:39:42;;;;;;;3.87;1.80;;;6.00;75.50;;;6.35;61.67;97329.00;4985243;28;20386;-40
2021/03/12 07:42:19;;;;;;;2.40;1.50;;;6.10;75.10;;;6.41;62.07;97339.81;5003959;28;20346;-40
2021/03/12 07:45:05;;;;;;;4.07;1.83;;;6.20;75.50;;;6.42;62.55;97354.72;4990964;28;20111;-39
2021/03/12 07:48:00;;;;;;;6.20;1.90;;;6.20;76.00;;;6.44;62.35;97355.41;4983523;28;20062;-39
2021/03/12 07:50:39;;;;;;;3.27;1.23;;;6.20;76.30;;;6.47;62.51;97341.06;5002684;28;20054;-39
2021/03/12 07:53:13;;;;;;;3.00;1.37;;;6.20;76.60;;;6.35;62.66;97344.84;5002828;28;20050;-38
2021/03/12 07:56:01;;;;;;;4.23;2.10;;;6.00;76.90;;;6.40;62.10;97358.50;4986405;28;20058;-39
2021/03/12 07:59:00;;;;;;;3.97;1.37;;;6.00;76.90;;;6.43;62.09;97355.56;4986684;28;20061;-39
2021/03/12 08:01:59;;;;;;;2.17;1.20;;;6.00;77.20;;;6.46;61.48;97352.63;4986850;28;20058;-39
2021/03/12 08:04:49;;;;;;;8.33;1.70;;;6.00;76.30;;;6.52;61.62;97351.25;4987343;28;20058;-40
2021/03/12 08:07:27;;;;;;;3.27;1.40;;;6.10;76.70;;;6.55;61.14;97351.75;4984369;28;20240;-38
2021/03/12 08:09:56;;;;;;;4.33;1.40;;;6.20;76.60;;;6.62;62.11;97352.88;5001282;28;20353;-38
2021/03/12 08:12:40;;;;;;;3.03;1.23;;;6.30;76.50;;;6.67;61.44;97347.16;5002270;28;20252;-39
2021/03/12 08:15:31;;;;;;;4.37;1.50;;;6.40;75.80;;;6.74;61.42;97350.06;4986151;28;20389;-38
2021/03/12 08:18:25;;;;;;;2.45;1.50;;;6.50;75.30;;;6.78;61.40;97354.91;4984927;28;20064;-38
2021/03/12 08:21:31;;;;;;;3.00;1.40;;;6.50;74.40;;;6.83;61.42;97347.38;4987901;28;20229;-38
2021/03/12 08:24:47;;;;;;;3.07;1.20;;;6.60;73.40;;;6.81;60.85;97343.22;5002024;28;20058;-38
2021/03/12 08:27:45;;;;;;;1.93;1.00;;;6.60;72.50;;;6.94;60.15;97337.56;4984444;28;20062;-38
2021/03/12 08:30:27;;;;;;;3.03;1.20;;;6.80;70.30;;;6.94;59.77;97334.94;4985480;28;20046;-38
2021/03/12 08:33:10;;;;;;;3.20;1.40;;;6.90;70.90;;;6.98;59.99;97338.94;4984822;28;20055;-39
2021/03/12 08:35:52;;;;;;;2.87;1.00;;;6.90;69.60;;;7.08;59.91;97337.94;5000977;28;20069;-39
2021/03/12 08:38:51;;;;;;;2.67;0.90;;;7.00;70.00;;;7.17;59.63;97330.91;4985442;28;20072;-39
2021/03/12 08:41:41;;;;;;;2.23;1.30;;;7.20;68.80;;;7.27;58.44;97354.72;4989312;28;20042;-40
2021/03/12 08:44:31;;;;;;;2.42;1.00;;;7.30;68.40;;;7.33;58.98;97348.81;4981398;28;20066;-39
2021/03/12 08:47:19;;;;;;;3.37;0.90;;;7.30;68.30;;;7.33;58.37;97348.81;4984614;28;20256;-38
2021/03/12 08:49:55;;;;;;;3.73;1.00;;;7.30;68.30;;;7.22;59.22;97359.59;5000752;28;20054;-38
2021/03/12 08:52:35;;;;;;;1.80;0.80;;;7.20;69.00;;;7.13;58.61;97350.72;5002184;28;20062;-37
2021/03/12 08:55:24;;;;;;;2.40;0.90;;;7.10;68.30;;;7.25;59.04;97341.63;5001748;28;20054;-39
2021/03/12 08:58:21;;;;;;;4.00;1.13;;;7.10;69.40;;;7.24;58.40;97368.25;5001528;28;20256;-41
2021/03/12 09:01:20;;;;;;;2.07;1.43;;;7.10;67.70;;;7.15;58.21;97369.09;4999512;28;20062;-38
2021/03/12 09:04:03;;;;;;;1.83;0.87;;;7.00;68.70;;;7.15;58.81;97363.81;5000197;28;20054;-39
2021/03/12 09:07:08;;;;;;;2.97;1.20;;;6.90;69.00;;;7.06;58.37;97352.31;4983410;28;20062;-40
2021/03/12 09:09:50;;;;;;;1.98;1.30;;;6.80;69.60;;;7.12;58.96;97353.53;4984102;28;20233;-40
2021/03/12 09:12:33;;;;;;;4.30;1.23;;;6.90;69.60;;;7.07;58.42;97352.13;5001737;28;20066;-40
2021/03/12 09:15:26;;;;;;;2.73;1.03;;;6.90;68.70;;;7.10;58.01;97351.84;5000167;28;20072;-40
2021/03/12 09:18:26;;;;;;;4.73;1.27;;;7.00;68.00;;;7.18;58.92;97347.66;5001973;28;20355;-38
2021/03/12 09:21:05;;;;;;;3.40;1.23;;;7.10;69.00;;;7.24;58.94;97342.59;5000905;28;20065;-40
2021/03/12 09:23:47;;;;;;;3.03;1.07;;;7.10;68.70;;;7.21;57.91;97355.28;5001290;28;20054;-40
2021/03/12 09:26:31;;;;;;;5.13;1.43;;;7.10;68.20;;;7.21;58.09;97342.03;4999836;28;20356;-40
2021/03/12 09:29:08;;;;;;;4.90;1.40;;;7.10;68.40;;;7.15;58.87;97345.28;5000752;28;20060;-40
2021/03/12 09:31:40;;;;;;;5.00;1.40;;;7.00;69.20;;;7.13;58.96;97339.31;4983938;28;20282;-39
2021/03/12 09:34:14;;;;;;;1.53;0.90;;;7.00;68.80;;;7.19;58.46;97347.50;5000469;28;20068;-39
2021/03/12 09:36:55;;;;;;;3.73;1.10;;;7.00;69.30;;;7.12;58.75;97343.78;5001185;28;20054;-39
2021/03/12 09:39:44;;;;;;;7.20;1.37;;;7.10;68.60;;;7.13;58.62;97326.88;4984402;28;20054;-39
2021/03/12 09:42:20;;;;;;;4.47;1.30;;;7.10;69.60;;;7.23;58.49;97329.50;4985005;28;20058;-39
2021/03/12 09:44:58;;;;;;;3.80;1.33;;;7.20;69.40;;;7.17;58.08;97327.44;4986975;28;20073;-39
2021/03/12 09:47:32;;;;;;;3.67;1.10;;;7.00;67.80;;;7.22;57.89;97315.44;4983497;28;20080;-39
2021/03/12 09:50:08;;;;;;;1.90;0.97;;;7.10;67.20;;;7.26;56.65;97319.44;4985863;28;20068;-39
2021/03/12 09:52:50;;;;;;;3.97;1.10;;;7.20;65.40;;;7.30;57.71;97325.28;4983233;28;20248;-39
2021/03/12 09:55:37;;;;;;;1.80;1.23;;;7.20;66.00;;;7.30;56.19;97318.16;4985043;28;20053;-39
2021/03/12 09:58:09;;;;;;;5.37;2.03;;;7.30;65.50;;;7.39;56.70;97319.09;4984310;28;20054;-39
2021/03/12 10:00:44;;;;;;;3.93;1.80;;;7.30;65.80;;;7.46;57.37;97314.00;5002183;28;20060;-39
2021/03/12 10:03:14;;;;;;;3.40;1.50;;;7.50;66.10;;;7.48;56.81;97312.06;4987886;28;20054;-39
2021/03/12 10:06:08;;;;;;;4.47;2.13;;;7.50;64.70;;;7.59;55.93;97316.31;4984393;28;20113;-39
2021/03/12 10:09:08;;;;;;;3.28;1.52;;;7.60;62.90;;;7.61;55.06;97311.69;5000785;28;20054;-39
2021/03/12 10:12:14;;;;;;;4.73;1.53;;;7.70;62.80;;;7.61;55.71;97317.00;5007857;28;20065;-39
2021/03/12 10:14:49;;;;;;;3.00;1.50;;;7.70;64.30;;;7.68;55.94;97318.06;5004903;28;20356;-39
2021/03/12 10:17:39;;;;;;;4.27;1.20;;;7.70;64.80;;;7.77;55.44;97316.31;5002841;28;20047;-39
2021/03/12 10:20:24;;;;;;;5.13;1.30;;;7.80;63.80;;;7.80;54.99;97313.38;5018156;28;20057;-39
2021/03/12 10:23:00;;;;;;;7.60;1.40;;;7.80;62.50;;;7.83;54.42;97327.16;5003587;28;20356;-39
2021/03/12 10:25:35;;;;;;;4.07;1.57;;;7.90;62.50;;;7.84;54.08;97320.03;5004858;28;20042;-39
2021/03/12 10:28:12;;;;;;;7.50;1.67;;;8.00;61.80;;;7.83;54.33;97308.59;5020148;28;20076;-39
2021/03/12 10:30:42;;;;;;;3.60;1.43;;;7.90;61.20;;;7.96;54.57;97313.50;5004242;28;20046;-39
2021/03/12 10:33:18;;;;;;;2.03;1.57;;;8.00;61.90;;;7.91;51.85;97314.94;5002794;28;20052;-39
2021/03/12 10:36:06;;;;;;;3.93;1.30;;;8.00;59.00;;;7.91;51.69;97317.59;5020122;28;20054;-39
2021/03/12 10:38:36;;;;;;;1.77;0.97;;;8.00;59.70;;;7.83;51.87;97316.56;5005332;28;20058;-39
2021/03/12 10:41:24;;;;;;;4.93;1.27;;;8.00;57.70;;;7.91;51.73;97307.00;5020456;28;20382;-39
2021/03/12 10:44:04;;;;;;;3.40;1.33;;;8.00;57.40;;;7.85;50.89;97311.06;5003557;28;20064;-39
2021/03/12 10:46:33;;;;;;;3.03;1.47;;;8.00;56.80;;;7.91;51.08;97296.38;5004265;28;20344;-39
2021/03/12 10:49:02;;;;;;;1.90;0.90;;;8.00;57.90;;;8.05;51.85;97293.22;5003907;28;20050;-39
2021/03/12 10:51:39;;;;;;;3.73;1.40;;;8.10;58.40;;;8.16;51.83;97284.16;5004487;28;20046;-39
2021/03/12 10:54:08;;;;;;;1.40;0.80;;;8.30;57.90;;;8.19;50.22;97286.50;5003997;28;20042;-39
2021/03/12 10:56:47;;;;;;;2.07;1.00;;;8.30;55.00;;;8.23;47.77;97283.38;5003551;28;20245;-39
2021/03/12 10:59:15;;;;;;;3.10;0.93;;;8.40;53.40;;;8.30;48.40;97283.59;5003638;28;20054;-39
2021/03/12 11:01:46;;;;;;;4.53;0.90;;;8.50;52.90;;;8.42;49.61;97274.44;5003239;28;20053;-40
2021/03/12 11:04:16;;;;;;;5.40;1.40;;;8.60;55.70;;;8.53;49.81;97281.31;5002864;28;20046;-39
2021/03/12 11:06:44;;;;;;;3.80;1.20;;;8.70;56.00;;;8.53;47.64;97288.41;5003344;28;20042;-39
2021/03/12 11:09:13;;;;;;;2.50;0.90;;;8.70;52.50;;;8.57;47.59;97268.53;5004015;28;20370;-39
2021/03/12 11:11:43;;;;;;;1.80;0.50;;;8.80;51.30;;;8.62;48.32;97259.09;5002249;28;20049;-39
2021/03/12 11:14:14;;;;;;;6.37;2.00;;;8.80;53.50;;;8.66;47.11;97257.78;5003972;28;20324;-39